Carson Sink, Nevada Weather observations

Data are for observation ending at time listed.
 Day   Time    Ave.   Ave.  Ave.  Vector   Max.   Stn.    Total    Solar   Ave.  
  of    of     Air    Rel.  Wind   Wind    Wind   Baro.  Precip.   Rad.    Soil  
Year   Day     Temp.  Hum.  Speed  Dir.    Gust   Pres.                    Temp. 
2016   (PST)    F      %     mph   deg.    mph     mb.     in.     W/m2     F   
------------------------------------------------------------------------------
 340    0:00   46.8    39    7.2   269      8.6   881.9    0.00       0     39.1
 340    0:10   47.4    38    7.3   252      8.8   881.8    0.00       0     39.1
 340    0:20   47.0    39    8.8   250     11.2   881.8    0.00       0     39.1
 340    0:30   46.2    40    6.1   258      8.9   881.7    0.00       0     39.0
 340    0:40   45.6    41    5.5   264      6.5   881.7    0.00       0     39.0
 340    0:50   44.4    44    4.6   269      7.2   881.8    0.00       0     39.0
 340    1:00   45.0    43    5.5   253      9.9   881.7    0.00       0     38.9
 340    1:10   43.9    45    5.3   269      6.9   881.8    0.00       0     38.8
 340    1:20   43.1    46    4.6   260      7.1   881.8    0.00       0     38.8
 340    1:30   42.5    46    4.0   210      6.1   881.8    0.00       0     38.8
 340    1:40   41.0    48    3.2   173      6.1   881.9    0.00       0     38.7
 340    1:50   42.2    48    5.4   216      8.4   881.9    0.00       0     38.7
 340    2:00   41.7    47    6.0   233      8.6   882.0    0.00       0     38.6
 340    2:10   39.9    49    5.5   235      8.6   882.0    0.00       0     38.6
 340    2:20   37.8    53    8.0   229     11.1   882.1    0.00       0     38.6
 340    2:30   37.6    54    6.6   236      9.1   882.2    0.00       0     38.5
 340    2:40   39.1    53    6.7   242      8.2   882.1    0.00       0     38.4
 340    2:50   39.6    53    5.2   243      6.7   882.1    0.00       0     38.4
 340    3:00   41.1    52    3.9   258      4.7   882.0    0.00       0     38.4
 340    3:10   42.2    51    8.0   334     11.6   882.0    0.00       0     38.3
 340    3:20   40.8    57   10.9   356     12.2   882.0    0.00       0     38.3
 340    3:30   40.2    61    9.3   352     10.7   882.0    0.00       0     38.3
 340    3:40   38.4    64    8.1   357      9.5   882.0    0.00       0     38.2
 340    3:50   38.2    64    7.8   356      9.6   882.0    0.00       0     38.2
 340    4:00   38.0    66    9.5   350     11.5   882.1    0.00       0     38.2
 340    4:10   37.7    66    7.9   351      9.7   882.1    0.00       0     38.2
 340    4:20   37.0    67    8.7     5      9.4   882.0    0.00       0     38.2
 340    4:30   35.2    70    8.9    29     10.0   882.0    0.00       0     38.2
 340    4:40   34.5    73    9.8    50     11.3   882.0    0.00       0     38.2
 340    4:50   35.6    74    9.9    31     13.2   882.0    0.00       0     38.1
 340    5:00   34.8    74    9.7    33     11.8   882.2    0.00       0     38.1
 340    5:10   34.0    75   10.9    31     12.9   882.4    0.00       0     38.1
 340    5:20   33.2    77   10.0    33     11.7   882.5    0.00       0     38.1
 340    5:30   33.2    77    9.2    49     13.0   882.6    0.00       0     38.1
 340    5:40   33.2    77    9.3    48     14.6   882.7    0.00       0     38.1
 340    5:50   33.1    76    9.6    41     14.0   882.8    0.00       0     38.1
 340    6:00   33.0    76   10.6    35     12.6   882.9    0.00       0     38.1
 340    6:10   32.8    76   11.3    32     13.2   882.9    0.00       0     38.1
 340    6:20   32.3    76   11.6    28     13.5   882.8    0.00       0     38.1
 340    6:30   31.7    76   11.1    19     13.7   882.8    0.00       0     38.1
 340    6:40   31.1    76   11.0    15     13.6   882.9    0.00       0     38.0
 340    6:50   30.6    77   10.4    22     12.3   883.2    0.00       1     38.0
 340    7:00   30.6    77   11.0    27     14.0   883.4    0.00       4     38.0
 340    7:10   30.8    76   13.1    29     16.0   883.3    0.00       6     38.0
 340    7:20   31.0    75   12.6    30     17.0   883.3    0.00      16     38.0
 340    7:30   31.0    75   11.9    25     15.2   883.5    0.00      40     37.9
 340    7:40   30.7    75   10.6    24     12.5   883.6    0.00      36     37.9
 340    7:50   30.8    75   10.1    23     12.3   883.7    0.00      60     37.9
 340    8:00   31.0    75   10.1    27     11.8   883.8    0.00      73     37.9
 340    8:10   31.3    74   10.7    28     12.8   883.8    0.00      84     37.8
 340    8:20   31.8    74   10.6    21     12.5   884.0    0.00     102     37.8
 340    8:30   32.1    74   10.5    17     12.7   884.0    0.00     100     37.8
 340    8:40   32.3    73    9.7    18     12.1   884.1    0.00      96     37.7
 340    8:50   32.9    72    8.7    18     10.8   884.2    0.00     155     37.7
 340    9:00   33.3    72    9.3    20     11.6   884.3    0.00     118     37.7
 340    9:10   34.0    69   12.3    22     15.1   884.2    0.00     174     37.7
 340    9:20   34.4    67   14.5    23     16.6   884.2    0.00     201     37.7
 340    9:30   34.8    65   15.8    24     18.8   884.0    0.00     284     37.7
 340    9:40   35.3    64   14.1    34     17.5   884.0    0.00     483     37.8
 340    9:50   35.9    61   14.6    45     17.3   884.1    0.00     556     37.8
 340   10:00   36.0    60   15.5    33     18.5   884.0    0.00     444     37.9
 340   10:10   36.3    60   13.6    32     16.8   884.0    0.00     475     38.0
 340   10:20   36.8    58   11.6    29     14.8   884.1    0.00     423     38.1
 340   10:30   37.1    59   11.3    23     15.1   883.9    0.00     406     38.2
 340   10:40   37.5    58   12.3    25     15.1   883.7    0.00     402     38.3
 340   10:50   37.9    56   11.7    29     15.1   883.7    0.00     417     38.5
 340   11:00   38.0    55   10.9    29     14.0   883.6    0.00     431     38.7
 340   11:10   38.4    54   10.1    24     14.0   883.5    0.00     454     38.8
 340   11:20   38.6    53   10.3    21     13.1   883.3    0.00     467     39.0
 340   11:30   39.2    53   10.6    12     13.3   883.1    0.00     468     39.2
 340   11:40   39.7    52    8.3    16     11.8   883.0    0.00     489     39.4
 340   11:50   40.4    53    7.1    22      9.9   882.8    0.00     503     39.5
 340   12:00   40.5    52    7.6    15     10.5   882.6    0.00     499     39.7
 340   12:10   40.6    51    6.8    13     10.6   882.5    0.00     447     40.0
 340   12:20   40.6    52    6.5    35      9.4   882.3    0.00     478     40.1
 340   12:30   40.8    52    6.3    24      8.9   882.2    0.00     449     40.4
 340   12:40   40.9    51    5.3     2      8.8   882.1    0.00     422     40.6
 340   12:50   41.1    51    4.0    38      6.2   881.9    0.00     413     40.8
 340   13:00   41.5    51    2.6   347      7.1   881.8    0.00     435     41.0
 340   13:10   41.5    50    3.3   357      6.1   881.6    0.00     389     41.3
 340   13:20   41.4    50    3.0   350      6.4   881.4    0.00     384     41.5
 340   13:30   41.7    50    1.9   353      3.7   881.3    0.00     347     41.7
 340   13:40   41.8    50    1.7    35      2.9   881.2    0.00     352     41.9
 340   13:50   42.0    50    2.8   349      5.6   881.2    0.00     356     42.2
 340   14:00   42.2    50    2.7   310      4.7   881.1    0.00     346     42.4
 340   14:10   42.4    50    2.5   304      7.2   881.0    0.00     322     42.6
 340   14:20   42.6    51    0.9   341      2.6   881.0    0.00     324     42.8
 340   14:30   44.3    50    1.5   212      3.6   880.9    0.00     299     43.0
 340   14:40   44.8    49    0.8   200      3.4   880.9    0.00     264     43.2
 340   14:50   44.6    48    1.2   222      2.9   880.9    0.00     222     43.4
 340   15:00   44.5    48    2.4   226      4.5   880.8    0.00     196     43.5
 340   15:10   43.9    49    1.3   250      3.4   880.8    0.00     174     43.7
 340   15:20   43.7    49    0.8   345      2.3   880.8    0.00     148     43.8
 340   15:30   42.9    50    2.5   156      4.5   880.8    0.00     119     43.9
 340   15:40   43.2    50    2.0   182      3.7   880.6    0.00      87     44.1
 340   15:50   44.0    49    0.7   231      1.3   880.5    0.00      59     44.2
 340   16:00   42.8    50    2.2   162      3.6   880.3    0.00      33     44.2
 340   16:10   41.9    52    1.0   126      2.2   880.3    0.00      17     44.3
 340   16:20   41.4    53    1.4   120      2.6   880.2    0.00      10     44.3
 340   16:30   40.6    54    0.9   121      1.9   880.1    0.00       5     44.3
 340   16:40   40.2    55    0.0   121      0.4   880.1    0.00       2     44.3
 340   16:50   39.6    56    0.0     0      0.0   880.0    0.00       0     44.3
 340   17:00   38.6    57    0.0     0      0.0   879.9    0.00       0     44.3
 340   17:10   38.9    58    0.0   121      0.4   879.9    0.00       0     44.2
 340   17:20   39.1    58    0.2   121      1.3   879.8    0.00       0     44.1
 340   17:30   39.1    58    1.3   121      1.5   879.8    0.00       0     44.1
 340   17:40   38.4    58    1.8   121      2.0   879.8    0.00       0     44.0
 340   17:50   38.0    60    1.7    58      2.3   879.8    0.00       0     43.9
 340   18:00   37.5    62    2.0   356      2.5   879.8    0.00       0     43.8
 340   18:10   37.5    62    2.5   337      2.7   879.8    0.00       0     43.7
 340   18:20   36.8    62    3.2   329      5.3   879.8    0.00       0     43.5
 340   18:30   34.3    63    3.8   336      4.2   879.7    0.00       0     43.4
 340   18:40   33.3    65    3.4   343      4.0   879.7    0.00       0     43.3
 340   18:50   32.6    66    3.4    10      4.1   879.8    0.00       0     43.1
 340   19:00   32.6    67    3.2    15      4.5   879.8    0.00       0     43.0
 340   19:10   32.3    67    2.3    25      2.8   879.7    0.00       0     42.9
 340   19:20   32.1    68    3.0    34      4.1   879.5    0.00       0     42.7
 340   19:30   31.7    69    3.4    45      4.9   879.6    0.00       0     42.6
 340   19:40   30.8    70    4.6    42      5.5   879.6    0.00       0     42.4
 340   19:50   30.1    70    6.1    30      7.6   879.7    0.00       0     42.3
 340   20:00   29.6    71    6.8    21      8.4   879.6    0.00       0     42.1
 340   20:10   29.6    71    4.8    29      7.1   879.5    0.00       0     42.0
 340   20:20   29.7    71    4.4    41      5.8   879.4    0.00       0     41.9
 340   20:30   29.6    71    5.7    36      7.1   879.4    0.00       0     41.7
 340   20:40   29.2    71    5.9    47      7.0   879.4    0.00       0     41.6
 340   20:50   28.9    72    5.1    44      6.4   879.4    0.00       0     41.4
 340   21:00   28.9    72    4.1    47      5.2   879.5    0.00       0     41.3
 340   21:10   28.8    72    5.0    32      5.9   879.6    0.00       0     41.2
 340   21:20   28.8    72    5.7    30      7.0   879.7    0.00       0     41.0
 340   21:30   28.5    72    5.4    25      6.7   879.6    0.00       0     40.9
 340   21:40   28.1    72    5.3    24      6.1   879.6    0.00       0     40.8
 340   21:50   27.9    72    4.6    14      6.0   879.6    0.00       0     40.6
 340   22:00   27.4    72    3.3   350      4.4   879.7    0.00       0     40.5
 340   22:10   26.7    72    5.0   352      6.7   879.7    0.00       0     40.4
 340   22:20   26.8    73    6.2   354      7.9   879.8    0.00       0     40.3
 340   22:30   27.0    73    6.5     0      7.9   879.8    0.00       0     40.1
 340   22:40   27.2    73    5.2     5      7.0   879.7    0.00       0     40.0
 340   22:50   27.2    73    4.1    31      5.3   879.8    0.00       0     39.9
 340   23:00   27.0    73    3.4    44      4.6   879.8    0.00       0     39.8
 340   23:10   26.9    73    4.1    50      5.5   879.8    0.00       0     39.6
 340   23:20   26.7    73    5.7    24      7.5   879.9    0.00       0     39.5

Return to Carson Sink graphs page.


Western Regional Climate Center,wrcc@dri.edu